createdAt,value
2016-11-09T00:00:56.272Z,960.68
2016-11-09T00:01:56.231Z,960.69
2016-11-09T00:02:56.188Z,960.69
2016-11-09T00:03:56.147Z,960.7
2016-11-09T00:04:56.104Z,960.64
2016-11-09T00:05:56.062Z,960.63
2016-11-09T00:06:56.022Z,960.63
2016-11-09T00:07:55.980Z,960.67
2016-11-09T00:08:55.937Z,960.59
2016-11-09T00:09:55.901Z,960.61
2016-11-09T00:10:55.856Z,960.6
2016-11-09T00:11:55.812Z,960.53
2016-11-09T00:12:55.770Z,960.5
2016-11-09T00:13:55.731Z,960.51
2016-11-09T00:14:55.687Z,960.47
2016-11-09T00:15:55.643Z,960.46
2016-11-09T00:16:55.604Z,960.47
2016-11-09T00:17:55.562Z,960.45
2016-11-09T00:18:55.520Z,960.46
2016-11-09T00:19:55.486Z,960.44
2016-11-09T00:20:55.438Z,960.44
2016-11-09T00:21:55.397Z,960.46
2016-11-09T00:22:55.354Z,960.44
2016-11-09T00:23:55.313Z,960.46
2016-11-09T00:24:55.272Z,960.49
2016-11-09T00:25:55.230Z,960.5
2016-11-09T00:26:55.191Z,960.47
2016-11-09T00:27:55.146Z,960.5
2016-11-09T00:28:55.105Z,960.51
2016-11-09T00:29:55.061Z,960.52
2016-11-09T00:30:55.021Z,960.53
2016-11-09T00:31:54.980Z,960.48
2016-11-09T00:32:54.940Z,960.5
2016-11-09T00:33:54.897Z,960.54
2016-11-09T00:34:54.854Z,960.47
2016-11-09T00:35:54.813Z,960.49
2016-11-09T00:36:54.773Z,960.46
2016-11-09T00:37:54.729Z,960.43
2016-11-09T00:38:54.690Z,960.43
2016-11-09T00:39:54.647Z,960.39
2016-11-09T00:40:54.605Z,960.44
2016-11-09T00:41:54.565Z,960.46
2016-11-09T00:42:54.523Z,960.43
2016-11-09T00:43:54.481Z,960.41
2016-11-09T00:44:54.438Z,960.42
2016-11-09T00:45:54.398Z,960.4
2016-11-09T00:46:54.357Z,960.39
2016-11-09T00:47:54.315Z,960.37
2016-11-09T00:48:54.275Z,960.39
2016-11-09T00:49:54.232Z,960.39
2016-11-09T00:50:54.190Z,960.37
2016-11-09T00:51:54.147Z,960.31
2016-11-09T00:52:54.106Z,960.29
2016-11-09T00:53:54.065Z,960.33
2016-11-09T00:54:54.024Z,960.31
2016-11-09T00:55:53.982Z,960.3
2016-11-09T00:56:53.939Z,960.29
2016-11-09T00:57:53.898Z,960.31
2016-11-09T00:58:53.858Z,960.3
2016-11-09T00:59:53.815Z,960.3
2016-11-09T01:00:53.773Z,960.21
2016-11-09T01:01:53.732Z,960.27
2016-11-09T01:02:53.690Z,960.29
2016-11-09T01:03:53.648Z,960.27
2016-11-09T01:04:53.607Z,960.27
2016-11-09T01:05:53.565Z,960.24
2016-11-09T01:06:53.523Z,960.24
2016-11-09T01:07:53.480Z,960.26
2016-11-09T01:08:53.440Z,960.16
2016-11-09T01:09:53.397Z,960.13
2016-11-09T01:10:53.358Z,960.11
2016-11-09T01:11:53.314Z,960.15
2016-11-09T01:12:53.272Z,960.14
2016-11-09T01:13:53.230Z,960.15
2016-11-09T01:14:53.188Z,960.16
2016-11-09T01:15:53.147Z,960.12
2016-11-09T01:16:53.108Z,960.07
2016-11-09T01:17:53.063Z,960.06
2016-11-09T01:18:53.021Z,960.04
2016-11-09T01:19:52.981Z,960.02
2016-11-09T01:20:52.937Z,960.02
2016-11-09T01:21:52.895Z,959.97
2016-11-09T01:22:52.854Z,959.96
2016-11-09T01:23:52.812Z,959.98
2016-11-09T01:24:52.769Z,959.96
2016-11-09T01:25:52.729Z,959.96
2016-11-09T01:26:52.687Z,959.96
2016-11-09T01:27:52.646Z,959.94
2016-11-09T01:28:52.602Z,959.93
2016-11-09T01:29:52.561Z,959.94
2016-11-09T01:30:52.519Z,959.93
2016-11-09T01:31:52.479Z,959.9
2016-11-09T01:32:52.437Z,959.89
2016-11-09T01:33:52.395Z,959.92
2016-11-09T01:34:52.351Z,959.89
2016-11-09T01:35:52.310Z,959.94
2016-11-09T01:36:52.268Z,959.9
2016-11-09T01:37:52.227Z,959.88
2016-11-09T01:38:52.187Z,959.83
2016-11-09T01:39:52.142Z,959.89
2016-11-09T01:40:52.100Z,959.9
2016-11-09T01:41:52.060Z,959.89
2016-11-09T01:42:52.017Z,959.84
2016-11-09T01:43:51.974Z,959.82
2016-11-09T01:44:51.933Z,959.82
2016-11-09T01:45:51.891Z,959.84
2016-11-09T01:46:51.849Z,959.81
2016-11-09T01:47:51.807Z,959.76
2016-11-09T01:48:51.766Z,959.8
2016-11-09T01:49:51.725Z,959.77
2016-11-09T01:50:51.682Z,959.78
2016-11-09T01:51:51.640Z,959.74
2016-11-09T01:52:51.598Z,959.72
2016-11-09T01:53:51.558Z,959.72
2016-11-09T01:54:51.515Z,959.7
2016-11-09T01:55:51.473Z,959.66
2016-11-09T01:56:51.432Z,959.64
2016-11-09T01:57:51.388Z,959.59
2016-11-09T01:58:51.347Z,959.63
2016-11-09T01:59:51.305Z,959.61
2016-11-09T02:00:51.264Z,959.57
2016-11-09T02:01:51.221Z,959.57
2016-11-09T02:02:51.179Z,959.5
2016-11-09T02:03:51.137Z,959.49
2016-11-09T02:04:51.094Z,959.49
2016-11-09T02:05:51.053Z,959.44
2016-11-09T02:06:51.011Z,959.47
2016-11-09T02:07:50.970Z,959.47
2016-11-09T02:08:50.927Z,959.45
2016-11-09T02:09:50.885Z,959.41
2016-11-09T02:10:50.843Z,959.43
2016-11-09T02:11:50.801Z,959.38
2016-11-09T02:12:50.758Z,959.37
2016-11-09T02:13:50.720Z,959.37
2016-11-09T02:14:50.677Z,959.35
2016-11-09T02:15:50.633Z,959.39
2016-11-09T02:16:50.589Z,959.33
2016-11-09T02:17:50.547Z,959.33
2016-11-09T02:18:50.508Z,959.37
2016-11-09T02:19:50.463Z,959.32
2016-11-09T02:20:50.421Z,959.34
2016-11-09T02:21:50.380Z,959.3
2016-11-09T02:22:50.337Z,959.25
2016-11-09T02:23:50.295Z,959.28
2016-11-09T02:24:50.253Z,959.26
2016-11-09T02:25:50.210Z,959.24
2016-11-09T02:26:50.167Z,959.21
2016-11-09T02:27:50.127Z,959.16
2016-11-09T02:28:50.085Z,959.13
2016-11-09T02:29:50.042Z,959.11
2016-11-09T02:30:49.998Z,959.03
2016-11-09T02:31:49.956Z,959.08
2016-11-09T02:32:49.916Z,959.04
2016-11-09T02:33:49.872Z,959.03
2016-11-09T02:34:49.831Z,959.05
2016-11-09T02:35:49.788Z,958.99
2016-11-09T02:36:49.746Z,958.98
2016-11-09T02:37:49.703Z,959.01
2016-11-09T02:38:49.661Z,958.96
2016-11-09T02:39:49.618Z,958.94
2016-11-09T02:40:49.576Z,958.93
2016-11-09T02:41:49.533Z,958.92
2016-11-09T02:42:49.491Z,958.86
2016-11-09T02:43:49.451Z,958.86
2016-11-09T02:44:49.407Z,958.82
2016-11-09T02:45:49.364Z,958.85
2016-11-09T02:46:49.322Z,958.85
2016-11-09T02:47:49.280Z,958.82
2016-11-09T02:48:49.237Z,958.76
2016-11-09T02:49:49.194Z,958.76
2016-11-09T02:50:49.152Z,958.74
2016-11-09T02:51:49.109Z,958.71
2016-11-09T02:52:49.065Z,958.69
2016-11-09T02:53:49.024Z,958.73
2016-11-09T02:54:48.985Z,958.68
2016-11-09T02:55:48.940Z,958.66
2016-11-09T02:56:48.896Z,958.66
2016-11-09T02:57:48.854Z,958.68
2016-11-09T02:58:48.813Z,958.72
2016-11-09T02:59:48.768Z,958.64
2016-11-09T03:00:48.727Z,958.71
2016-11-09T03:01:48.685Z,958.72
2016-11-09T03:02:48.641Z,958.6
2016-11-09T03:03:48.599Z,958.63
2016-11-09T03:04:48.559Z,958.61
2016-11-09T03:05:48.514Z,958.56
2016-11-09T03:06:48.473Z,958.54
2016-11-09T03:07:48.430Z,958.48
2016-11-09T03:08:48.386Z,958.47
2016-11-09T03:09:48.344Z,958.4
2016-11-09T03:10:48.301Z,958.41
2016-11-09T03:11:48.260Z,958.4
2016-11-09T03:12:48.216Z,958.4
2016-11-09T03:13:48.175Z,958.42
2016-11-09T03:14:48.131Z,958.39
2016-11-09T03:15:48.088Z,958.42
2016-11-09T03:16:48.046Z,958.47
2016-11-09T03:17:48.004Z,958.44
2016-11-09T03:18:47.959Z,958.42
2016-11-09T03:19:47.919Z,958.42
2016-11-09T03:20:47.876Z,958.42
2016-11-09T03:21:47.832Z,958.36
2016-11-09T03:22:47.790Z,958.4
2016-11-09T03:23:47.749Z,958.34
2016-11-09T03:24:47.706Z,958.37
2016-11-09T03:25:47.665Z,958.31
2016-11-09T03:26:47.620Z,958.28
2016-11-09T03:27:47.578Z,958.28
2016-11-09T03:28:47.537Z,958.28
2016-11-09T03:29:47.493Z,958.21
2016-11-09T03:30:47.451Z,958.16
2016-11-09T03:31:47.410Z,958.16
2016-11-09T03:32:47.365Z,958.2
2016-11-09T03:33:47.323Z,958.18
2016-11-09T03:34:47.280Z,958.16
2016-11-09T03:35:47.237Z,958.11
2016-11-09T03:36:47.195Z,958.12
2016-11-09T03:37:47.152Z,958.13
2016-11-09T03:38:47.109Z,958.13
2016-11-09T03:39:47.067Z,958.13
2016-11-09T03:40:47.024Z,958.13
2016-11-09T03:41:46.981Z,958.14
2016-11-09T03:42:46.939Z,958.12
2016-11-09T03:43:46.895Z,958.12
2016-11-09T03:44:46.853Z,958.13
2016-11-09T03:45:46.811Z,958.08
2016-11-09T03:46:46.768Z,958.03
2016-11-09T03:47:46.724Z,958.03
2016-11-09T03:48:46.682Z,958.03
2016-11-09T03:49:46.640Z,958.08
2016-11-09T03:50:46.598Z,958.01
2016-11-09T03:51:46.555Z,958.03
2016-11-09T03:52:46.512Z,958.04
2016-11-09T03:53:46.469Z,958
2016-11-09T03:54:46.426Z,958
2016-11-09T03:55:46.384Z,958.05
2016-11-09T03:56:46.341Z,958.04
2016-11-09T03:57:46.299Z,958.03
2016-11-09T03:58:46.259Z,958.05
2016-11-09T03:59:46.212Z,958.04
2016-11-09T04:00:46.171Z,958.04
2016-11-09T04:01:46.130Z,958.04
2016-11-09T04:02:46.084Z,958.05
2016-11-09T04:03:46.043Z,958.05
2016-11-09T04:04:46.002Z,958.01
2016-11-09T04:05:45.958Z,958
2016-11-09T04:06:45.916Z,957.99
2016-11-09T04:07:45.873Z,957.95
2016-11-09T04:08:45.832Z,957.89
2016-11-09T04:09:45.787Z,957.93
2016-11-09T04:10:45.746Z,957.96
2016-11-09T04:11:45.704Z,957.93
2016-11-09T04:12:45.661Z,957.93
2016-11-09T04:13:45.618Z,957.94
2016-11-09T04:14:45.576Z,957.94
2016-11-09T04:15:45.549Z,957.87
2016-11-09T04:16:45.491Z,957.88
2016-11-09T04:17:45.450Z,957.85
2016-11-09T04:18:45.406Z,957.86
2016-11-09T04:19:45.366Z,957.85
2016-11-09T04:20:45.324Z,957.85
2016-11-09T04:21:45.280Z,957.78
2016-11-09T04:22:45.237Z,957.82
2016-11-09T04:23:45.194Z,957.78
2016-11-09T04:24:45.151Z,957.79
2016-11-09T04:25:45.108Z,957.76
2016-11-09T04:26:45.069Z,957.74
2016-11-09T04:27:45.026Z,957.71
2016-11-09T04:28:44.991Z,957.71
2016-11-09T04:29:44.941Z,957.71
2016-11-09T04:30:44.899Z,957.66
2016-11-09T04:31:44.856Z,957.68
2016-11-09T04:32:44.813Z,957.67
2016-11-09T04:33:44.773Z,957.65
2016-11-09T04:34:44.729Z,957.63
2016-11-09T04:35:44.686Z,957.6
2016-11-09T04:36:44.647Z,957.54
2016-11-09T04:37:44.602Z,957.55
2016-11-09T04:38:44.561Z,957.54
2016-11-09T04:39:44.517Z,957.53
2016-11-09T04:40:44.475Z,957.53
2016-11-09T04:41:44.434Z,957.52
2016-11-09T04:42:44.391Z,957.5
2016-11-09T04:43:44.347Z,957.49
2016-11-09T04:44:44.306Z,957.41
2016-11-09T04:45:44.263Z,957.45
2016-11-09T04:46:44.223Z,957.43
2016-11-09T04:47:44.178Z,957.46
2016-11-09T04:48:44.139Z,957.42
2016-11-09T04:49:44.093Z,957.38
2016-11-09T04:50:44.051Z,957.37
2016-11-09T04:51:44.010Z,957.34
2016-11-09T04:52:43.968Z,957.31
2016-11-09T04:53:43.926Z,957.24
2016-11-09T04:54:43.882Z,957.28
2016-11-09T04:55:43.841Z,957.25
2016-11-09T04:56:43.800Z,957.23
2016-11-09T04:57:43.757Z,957.22
2016-11-09T04:58:43.713Z,957.21
2016-11-09T04:59:43.671Z,957.15
2016-11-09T05:00:43.629Z,957.15
2016-11-09T05:01:43.587Z,957.09
2016-11-09T05:02:43.544Z,957.13
2016-11-09T05:03:43.505Z,957.12
2016-11-09T05:04:43.461Z,957.15
2016-11-09T05:05:43.421Z,957.12
2016-11-09T05:06:43.377Z,957.1
2016-11-09T05:07:43.333Z,957.13
2016-11-09T05:08:43.291Z,957.1
2016-11-09T05:09:43.249Z,957.12
2016-11-09T05:10:43.209Z,957.1
2016-11-09T05:11:43.165Z,957.14
2016-11-09T05:12:43.124Z,957.09
2016-11-09T05:13:43.082Z,957.1
2016-11-09T05:14:43.037Z,957.07
2016-11-09T05:15:42.996Z,957.03
2016-11-09T05:16:42.954Z,957.04
2016-11-09T05:17:42.913Z,957.09
2016-11-09T05:18:42.872Z,957.09
2016-11-09T05:19:42.827Z,957.08
2016-11-09T05:20:42.785Z,957.03
2016-11-09T05:21:42.744Z,957.02
2016-11-09T05:22:42.701Z,957.06
2016-11-09T05:23:42.658Z,957
2016-11-09T05:24:42.616Z,957
2016-11-09T05:25:42.574Z,956.95
2016-11-09T05:26:42.532Z,956.97
2016-11-09T05:27:42.490Z,956.91
2016-11-09T05:28:42.449Z,956.91
2016-11-09T05:29:42.405Z,956.94
2016-11-09T05:30:42.364Z,956.91
2016-11-09T05:31:42.321Z,956.88
2016-11-09T05:32:42.280Z,956.93
2016-11-09T05:33:42.236Z,956.85
2016-11-09T05:34:42.194Z,956.91
2016-11-09T05:35:42.153Z,956.85
2016-11-09T05:36:42.112Z,956.85
2016-11-09T05:37:42.069Z,956.86
2016-11-09T05:38:42.026Z,956.84
2016-11-09T05:39:41.984Z,956.84
2016-11-09T05:40:41.942Z,956.81
2016-11-09T05:41:41.899Z,956.83
2016-11-09T05:42:41.857Z,956.79
2016-11-09T05:43:41.815Z,956.81
2016-11-09T05:44:41.773Z,956.78
2016-11-09T05:45:41.732Z,956.79
2016-11-09T05:46:41.689Z,956.76
2016-11-09T05:47:41.645Z,956.75
2016-11-09T05:48:41.602Z,956.74
2016-11-09T05:49:41.565Z,956.7
2016-11-09T05:50:41.519Z,956.66
2016-11-09T05:51:41.477Z,956.69
2016-11-09T05:52:41.436Z,956.72
2016-11-09T05:53:41.394Z,956.75
2016-11-09T05:54:41.351Z,956.72
2016-11-09T05:55:41.311Z,956.71
2016-11-09T05:56:41.267Z,956.71
2016-11-09T05:57:41.225Z,956.66
2016-11-09T05:58:41.184Z,956.65
2016-11-09T05:59:41.142Z,956.64
2016-11-09T06:00:41.098Z,956.67
2016-11-09T06:01:41.057Z,956.61
2016-11-09T06:02:41.013Z,956.6
2016-11-09T06:03:40.972Z,956.59
2016-11-09T06:04:40.930Z,956.59
2016-11-09T06:05:40.888Z,956.57
2016-11-09T06:06:40.843Z,956.5
2016-11-09T06:07:40.803Z,956.54
2016-11-09T06:08:40.761Z,956.56
2016-11-09T06:09:40.721Z,956.53
2016-11-09T06:10:40.676Z,956.54
2016-11-09T06:11:40.635Z,956.49
2016-11-09T06:12:40.594Z,956.45
2016-11-09T06:13:40.550Z,956.45
2016-11-09T06:14:40.508Z,956.46
2016-11-09T06:15:40.465Z,956.49
2016-11-09T06:16:40.425Z,956.44
2016-11-09T06:17:40.382Z,956.44
2016-11-09T06:18:40.340Z,956.41
2016-11-09T06:19:40.299Z,956.43
2016-11-09T06:20:40.255Z,956.4
2016-11-09T06:21:40.216Z,956.37
2016-11-09T06:22:40.172Z,956.4
2016-11-09T06:23:40.130Z,956.42
2016-11-09T06:24:40.086Z,956.31
2016-11-09T06:25:40.046Z,956.32
2016-11-09T06:26:40.003Z,956.32
2016-11-09T06:27:39.961Z,956.28
2016-11-09T06:28:39.920Z,956.3
2016-11-09T06:29:39.877Z,956.3
2016-11-09T06:30:39.835Z,956.3
2016-11-09T06:31:39.794Z,956.27
2016-11-09T06:32:39.752Z,956.31
2016-11-09T06:33:39.709Z,956.29
2016-11-09T06:34:39.667Z,956.3
2016-11-09T06:35:39.625Z,956.31
2016-11-09T06:36:39.584Z,956.29
2016-11-09T06:37:39.541Z,956.29
2016-11-09T06:38:39.501Z,956.25
2016-11-09T06:39:39.458Z,956.27
2016-11-09T06:40:39.417Z,956.26
2016-11-09T06:41:39.375Z,956.3
2016-11-09T06:42:39.331Z,956.28
2016-11-09T06:43:39.292Z,956.28
2016-11-09T06:44:39.250Z,956.28
2016-11-09T06:45:39.208Z,956.29
2016-11-09T06:46:39.164Z,956.24
2016-11-09T06:47:39.124Z,956.22
2016-11-09T06:48:39.081Z,956.16
2016-11-09T06:49:39.039Z,956.22
2016-11-09T06:50:38.997Z,956.22
2016-11-09T06:51:38.955Z,956.18
2016-11-09T06:52:38.917Z,956.18
2016-11-09T06:53:38.872Z,956.23
2016-11-09T06:54:38.830Z,956.2
2016-11-09T06:55:38.787Z,956.21
2016-11-09T06:56:38.745Z,956.25
2016-11-09T06:57:38.705Z,956.19
2016-11-09T06:58:38.662Z,956.18
2016-11-09T06:59:38.621Z,956.2
2016-11-09T07:00:38.578Z,956.22
2016-11-09T07:01:38.538Z,956.25
2016-11-09T07:02:38.496Z,956.22
2016-11-09T07:03:38.454Z,956.21
2016-11-09T07:04:38.410Z,956.18
2016-11-09T07:05:38.367Z,956.22
2016-11-09T07:06:38.328Z,956.21
2016-11-09T07:07:38.288Z,956.19
2016-11-09T07:08:38.242Z,956.18
2016-11-09T07:09:38.202Z,956.21
2016-11-09T07:10:38.160Z,956.18
2016-11-09T07:11:38.118Z,956.18
2016-11-09T07:12:38.076Z,956.21
2016-11-09T07:13:38.035Z,956.19
2016-11-09T07:14:37.993Z,956.16
2016-11-09T07:15:37.949Z,956.15
2016-11-09T07:16:37.909Z,956.17
2016-11-09T07:17:37.868Z,956.18
2016-11-09T07:18:37.826Z,956.2
2016-11-09T07:19:37.784Z,956.22
2016-11-09T07:20:37.744Z,956.22
2016-11-09T07:21:37.703Z,956.19
2016-11-09T07:22:37.660Z,956.19
2016-11-09T07:23:37.621Z,956.2
2016-11-09T07:24:37.577Z,956.17
2016-11-09T07:25:37.535Z,956.12
2016-11-09T07:26:37.495Z,956.13
2016-11-09T07:27:37.455Z,956.12
2016-11-09T07:28:37.412Z,956.12
2016-11-09T07:29:37.372Z,956.09
2016-11-09T07:30:37.328Z,956.11
2016-11-09T07:31:37.288Z,956.08
2016-11-09T07:32:37.247Z,956.03
2016-11-09T07:33:37.206Z,956.03
2016-11-09T07:34:37.166Z,956.01
2016-11-09T07:35:37.126Z,955.99
2016-11-09T07:36:37.085Z,956.01
2016-11-09T07:37:37.044Z,955.98
2016-11-09T07:38:37.003Z,955.99
2016-11-09T07:39:36.963Z,955.95
2016-11-09T07:40:36.923Z,955.95
2016-11-09T07:41:36.882Z,955.9
2016-11-09T07:42:36.842Z,955.9
2016-11-09T07:43:36.802Z,955.88
2016-11-09T07:44:36.761Z,955.86
2016-11-09T07:45:36.720Z,955.87
2016-11-09T07:46:36.680Z,955.84
2016-11-09T07:47:36.641Z,955.82
2016-11-09T07:48:36.599Z,955.81
2016-11-09T07:49:36.561Z,955.83
2016-11-09T07:50:36.520Z,955.82
2016-11-09T07:51:36.481Z,955.8
2016-11-09T07:52:36.437Z,955.77
2016-11-09T07:53:36.397Z,955.77
2016-11-09T07:54:36.356Z,955.81
2016-11-09T07:55:36.316Z,955.76
2016-11-09T07:56:36.275Z,955.74
2016-11-09T07:57:36.236Z,955.76
2016-11-09T07:58:36.196Z,955.78
2016-11-09T07:59:36.154Z,955.77
2016-11-09T08:00:36.114Z,955.76
2016-11-09T08:01:36.074Z,955.75
2016-11-09T08:02:36.035Z,955.79
2016-11-09T08:03:35.993Z,955.83
2016-11-09T08:04:35.952Z,955.84
2016-11-09T08:05:35.914Z,955.85
2016-11-09T08:06:35.873Z,955.93
2016-11-09T08:07:35.831Z,955.92
2016-11-09T08:08:35.792Z,955.95
2016-11-09T08:09:35.751Z,955.92
2016-11-09T08:10:35.711Z,955.89
2016-11-09T08:11:35.673Z,955.95
2016-11-09T08:12:35.631Z,955.92
2016-11-09T08:13:35.591Z,955.94
2016-11-09T08:14:35.551Z,955.97
2016-11-09T08:15:35.512Z,956
2016-11-09T08:16:35.472Z,955.96
2016-11-09T08:17:35.431Z,956.02
2016-11-09T08:18:35.394Z,956.05
2016-11-09T08:19:35.353Z,956.05
2016-11-09T08:20:35.312Z,956.03
2016-11-09T08:21:35.276Z,956.08
2016-11-09T08:22:35.235Z,956.05
2016-11-09T08:23:35.196Z,956.07
2016-11-09T08:24:35.156Z,956.07
2016-11-09T08:25:35.117Z,956.11
2016-11-09T08:26:35.078Z,956.09
2016-11-09T08:27:35.039Z,956.15
2016-11-09T08:28:35.000Z,956.12
2016-11-09T08:29:34.961Z,956.13
2016-11-09T08:30:34.922Z,956.17
2016-11-09T08:31:34.884Z,956.18
2016-11-09T08:32:34.845Z,956.23
2016-11-09T08:33:34.813Z,956.24
2016-11-09T08:34:34.770Z,956.19
2016-11-09T08:35:34.731Z,956.18
2016-11-09T08:36:34.692Z,956.2
2016-11-09T08:37:34.655Z,956.22
2016-11-09T08:38:34.618Z,956.2
2016-11-09T08:39:34.579Z,956.24
2016-11-09T08:40:34.542Z,956.24
2016-11-09T08:41:34.504Z,956.22
2016-11-09T08:42:34.467Z,956.25
2016-11-09T08:43:34.431Z,956.26
2016-11-09T08:46:07.339Z,956.3
2016-11-09T08:47:07.300Z,956.22
2016-11-09T08:48:07.267Z,956.23
2016-11-09T08:49:07.225Z,956.24
2016-11-09T08:50:07.187Z,956.27
2016-11-09T08:51:07.150Z,956.26
2016-11-09T08:52:07.108Z,956.31
2016-11-09T08:53:07.073Z,956.27
2016-11-09T08:54:07.034Z,956.27
2016-11-09T08:55:06.998Z,956.34
2016-11-09T08:56:06.960Z,956.32
2016-11-09T08:57:06.922Z,956.35
2016-11-09T08:58:06.886Z,956.33
2016-11-09T08:59:06.850Z,956.34
2016-11-09T09:00:06.810Z,956.34
2016-11-09T09:01:06.775Z,956.33
2016-11-09T09:02:06.738Z,956.33
2016-11-09T09:03:06.703Z,956.33
2016-11-09T09:04:06.666Z,956.35
2016-11-09T09:05:06.628Z,956.33
2016-11-09T09:06:06.591Z,956.38
2016-11-09T09:07:06.556Z,956.4
2016-11-09T09:08:06.520Z,956.37
2016-11-09T09:09:06.483Z,956.33
2016-11-09T09:10:06.453Z,956.37
2016-11-09T09:11:06.410Z,956.36
2016-11-09T09:12:06.372Z,956.37
2016-11-09T09:13:06.337Z,956.35
2016-11-09T09:14:06.297Z,956.32
2016-11-09T09:15:06.262Z,956.34
2016-11-09T09:16:06.224Z,956.35
2016-11-09T09:17:06.189Z,956.31
2016-11-09T09:18:06.154Z,956.32
2016-11-09T09:19:06.119Z,956.27
2016-11-09T09:20:06.083Z,956.27
2016-11-09T09:21:06.048Z,956.27
2016-11-09T09:22:06.011Z,956.22
2016-11-09T09:23:05.975Z,956.22
2016-11-09T09:24:05.946Z,956.16
2016-11-09T09:25:05.903Z,956.16
2016-11-09T09:26:05.866Z,956.13
2016-11-09T09:27:05.831Z,956.07
2016-11-09T09:28:05.795Z,956.08
2016-11-09T09:29:05.759Z,956.07
2016-11-09T09:30:05.722Z,956.03
2016-11-09T09:31:05.687Z,956.02
2016-11-09T09:32:05.650Z,955.96
2016-11-09T09:33:05.614Z,955.95
2016-11-09T09:34:05.578Z,955.93
2016-11-09T09:35:05.542Z,955.95
2016-11-09T09:36:05.505Z,955.93
2016-11-09T09:37:05.468Z,955.92
2016-11-09T09:38:05.433Z,955.92
2016-11-09T09:39:05.395Z,955.89
2016-11-09T09:40:05.361Z,955.91
2016-11-09T09:41:05.324Z,955.92
2016-11-09T09:42:05.288Z,955.89
2016-11-09T09:43:05.250Z,955.93
2016-11-09T09:44:05.213Z,955.95
2016-11-09T09:45:05.177Z,955.91
2016-11-09T09:46:05.139Z,955.88
2016-11-09T09:47:05.103Z,955.85
2016-11-09T09:48:05.066Z,955.84
2016-11-09T09:49:05.028Z,955.9
2016-11-09T09:50:04.993Z,955.88
2016-11-09T09:51:04.954Z,955.84
2016-11-09T09:52:04.917Z,955.85
2016-11-09T09:53:04.881Z,955.82
2016-11-09T09:54:04.843Z,955.78
2016-11-09T09:55:04.806Z,955.82
2016-11-09T09:56:04.767Z,955.77
2016-11-09T09:57:04.732Z,955.8
2016-11-09T09:58:04.697Z,955.8
2016-11-09T09:59:04.658Z,955.78
2016-11-09T10:00:04.617Z,955.78
2016-11-09T10:01:04.579Z,955.85
2016-11-09T10:02:04.541Z,955.82
2016-11-09T10:03:04.502Z,955.8
2016-11-09T10:04:04.467Z,955.82
2016-11-09T10:05:04.430Z,955.8
2016-11-09T10:06:04.388Z,955.78
2016-11-09T10:07:04.350Z,955.77
2016-11-09T10:08:04.313Z,955.73
2016-11-09T10:09:04.274Z,955.76
2016-11-09T10:10:04.235Z,955.71
2016-11-09T10:11:04.197Z,955.65
2016-11-09T10:12:04.161Z,955.6
2016-11-09T10:13:04.119Z,955.61
2016-11-09T10:14:04.080Z,955.68
2016-11-09T10:15:04.043Z,955.73
2016-11-09T10:16:04.005Z,955.74
2016-11-09T10:17:03.965Z,955.74
2016-11-09T10:18:03.927Z,955.72
2016-11-09T10:19:03.890Z,955.73
2016-11-09T10:20:03.851Z,955.67
2016-11-09T10:21:03.813Z,955.67
2016-11-09T10:22:03.774Z,955.71
2016-11-09T10:23:03.736Z,955.69
2016-11-09T10:24:03.696Z,955.73
2016-11-09T10:25:03.657Z,955.72
2016-11-09T10:26:03.619Z,955.68
2016-11-09T10:27:03.584Z,955.68
2016-11-09T10:28:03.543Z,955.65
2016-11-09T10:29:03.503Z,955.62
2016-11-09T10:30:03.465Z,955.67
2016-11-09T10:31:03.427Z,955.59
2016-11-09T10:32:03.389Z,955.53
2016-11-09T10:33:03.350Z,955.51
2016-11-09T10:34:03.313Z,955.5
2016-11-09T10:35:03.273Z,955.45
2016-11-09T10:36:03.235Z,955.48
2016-11-09T10:37:03.198Z,955.45
2016-11-09T10:38:03.162Z,955.41
2016-11-09T10:39:03.120Z,955.41
2016-11-09T10:40:03.083Z,955.37
2016-11-09T10:41:03.044Z,955.37
2016-11-09T10:42:03.007Z,955.35
2016-11-09T10:43:02.968Z,955.31
2016-11-09T10:44:02.933Z,955.29
2016-11-09T10:45:02.891Z,955.23
2016-11-09T10:46:02.852Z,955.25
2016-11-09T10:47:02.816Z,955.21
2016-11-09T10:48:02.776Z,955.21
2016-11-09T10:49:02.739Z,955.19
2016-11-09T10:50:02.699Z,955.22
2016-11-09T10:51:02.663Z,955.19
2016-11-09T10:52:02.632Z,955.2
2016-11-09T10:53:02.584Z,955.16
2016-11-09T10:54:02.546Z,955.11
2016-11-09T10:55:02.507Z,955.03
2016-11-09T10:56:02.471Z,955.1
2016-11-09T10:57:02.432Z,955.01
2016-11-09T10:58:02.395Z,954.97
2016-11-09T10:59:02.355Z,954.96
2016-11-09T11:00:02.319Z,954.93
2016-11-09T11:01:02.279Z,954.92
2016-11-09T11:02:02.241Z,954.87
2016-11-09T11:03:02.203Z,954.81
2016-11-09T11:04:02.164Z,954.81
2016-11-09T11:05:02.125Z,954.82
2016-11-09T11:06:02.089Z,954.84
2016-11-09T11:07:02.048Z,954.85
2016-11-09T11:08:02.010Z,954.84
2016-11-09T11:09:01.969Z,954.87
2016-11-09T11:10:01.934Z,954.83
2016-11-09T11:11:01.895Z,954.8
2016-11-09T11:12:01.856Z,954.79
2016-11-09T11:13:01.818Z,954.79
2016-11-09T11:14:01.779Z,954.83
2016-11-09T11:15:01.741Z,954.81
2016-11-09T11:16:01.703Z,954.83
2016-11-09T11:17:01.664Z,954.83
2016-11-09T11:18:01.626Z,954.82
2016-11-09T11:19:01.588Z,954.75
2016-11-09T11:20:01.547Z,954.73
2016-11-09T11:21:01.509Z,954.75
2016-11-09T11:22:01.472Z,954.62
2016-11-09T11:23:01.431Z,954.7
2016-11-09T11:24:01.393Z,954.61
2016-11-09T11:25:01.354Z,954.64
2016-11-09T11:26:01.313Z,954.62
2016-11-09T11:27:01.276Z,954.64
2016-11-09T11:28:01.237Z,954.62
2016-11-09T11:29:01.198Z,954.61
2016-11-09T11:30:01.163Z,954.58
2016-11-09T11:31:01.121Z,954.56
2016-11-09T11:32:01.082Z,954.51
2016-11-09T11:33:01.043Z,954.49
2016-11-09T11:34:01.004Z,954.48
2016-11-09T11:35:00.966Z,954.42
2016-11-09T11:36:00.927Z,954.46
2016-11-09T11:37:00.888Z,954.42
2016-11-09T11:38:00.847Z,954.39
2016-11-09T11:39:00.810Z,954.4
2016-11-09T11:40:00.770Z,954.35
2016-11-09T11:41:00.730Z,954.38
2016-11-09T11:42:00.693Z,954.36
2016-11-09T11:43:00.653Z,954.32
2016-11-09T11:44:00.615Z,954.31
2016-11-09T11:45:00.578Z,954.3
2016-11-09T11:46:00.540Z,954.27
2016-11-09T11:47:00.502Z,954.28
2016-11-09T11:48:00.466Z,954.29
2016-11-09T11:49:00.420Z,954.28
2016-11-09T11:50:00.382Z,954.26
2016-11-09T11:51:00.344Z,954.25
2016-11-09T11:52:00.303Z,954.22
2016-11-09T11:53:00.264Z,954.14
2016-11-09T11:54:00.226Z,954.17
2016-11-09T11:55:00.187Z,954.14
2016-11-09T11:56:00.146Z,954.13
2016-11-09T11:57:00.108Z,954.1
2016-11-09T11:58:00.070Z,954.1
2016-11-09T11:59:00.030Z,954.1
2016-11-09T11:59:59.989Z,954.11
2016-11-09T12:00:59.951Z,954.08
2016-11-09T12:01:59.915Z,954.06
2016-11-09T12:02:59.873Z,954.04
2016-11-09T12:03:59.834Z,954.05
2016-11-09T12:04:59.799Z,954.04
2016-11-09T12:05:59.756Z,954.04
2016-11-09T12:06:59.716Z,954.07
2016-11-09T12:07:59.678Z,954
2016-11-09T12:08:59.639Z,954.05
2016-11-09T12:09:59.598Z,954.02
2016-11-09T12:10:59.559Z,954.06
2016-11-09T12:11:59.520Z,954
2016-11-09T12:12:59.481Z,954.01
2016-11-09T12:13:59.441Z,953.99
2016-11-09T12:14:59.402Z,953.96
2016-11-09T12:15:59.363Z,954.02
2016-11-09T12:16:59.324Z,954
2016-11-09T12:17:59.284Z,953.95
2016-11-09T12:18:59.244Z,953.95
2016-11-09T12:19:59.207Z,953.93
2016-11-09T12:20:59.166Z,953.99
2016-11-09T12:21:59.127Z,953.96
2016-11-09T12:22:59.088Z,953.9
2016-11-09T12:23:59.048Z,953.95
2016-11-09T12:24:59.010Z,953.93
2016-11-09T12:25:58.968Z,953.94
2016-11-09T12:26:58.931Z,953.9
2016-11-09T12:27:58.891Z,953.88
2016-11-09T12:28:58.852Z,953.9
2016-11-09T12:29:58.813Z,953.86
2016-11-09T12:30:58.773Z,953.86
2016-11-09T12:31:58.733Z,953.86
2016-11-09T12:32:58.695Z,953.88